sensor_id;sensor_type;location;lat;lon;timestamp;pressure;altitude;pressure_sealevel;temperature;humidity
11198;BME280;5655;48.744;9.162;2022-10-18T00:00:39;97044.44;;;17.45;100.00
11198;BME280;5655;48.744;9.162;2022-10-18T00:03:04;97054.91;;;17.36;100.00
11198;BME280;5655;48.744;9.162;2022-10-18T00:05:30;97048.31;;;17.37;100.00
11198;BME280;5655;48.744;9.162;2022-10-18T00:07:55;97056.06;;;17.42;100.00
11198;BME280;5655;48.744;9.162;2022-10-18T00:10:20;97056.41;;;17.44;100.00
11198;BME280;5655;48.744;9.162;2022-10-18T00:12:46;97057.59;;;17.36;100.00
11198;BME280;5655;48.744;9.162;2022-10-18T00:15:11;97059.13;;;17.51;100.00
11198;BME280;5655;48.744;9.162;2022-10-18T00:17:38;97055.28;;;17.38;100.00
11198;BME280;5655;48.744;9.162;2022-10-18T00:20:04;97058.72;;;17.63;100.00
11198;BME280;5655;48.744;9.162;2022-10-18T00:22:30;97065.34;;;17.31;100.00
11198;BME280;5655;48.744;9.162;2022-10-18T00:24:55;97064.56;;;17.30;100.00
11198;BME280;5655;48.744;9.162;2022-10-18T00:27:21;97061.09;;;17.37;100.00
11198;BME280;5655;48.744;9.162;2022-10-18T00:29:46;97060.72;;;17.24;100.00
11198;BME280;5655;48.744;9.162;2022-10-18T00:32:11;97055.69;;;17.19;100.00
11198;BME280;5655;48.744;9.162;2022-10-18T00:34:38;97052.22;;;16.94;100.00
11198;BME280;5655;48.744;9.162;2022-10-18T00:37:04;97056.88;;;17.04;100.00
11198;BME280;5655;48.744;9.162;2022-10-18T00:39:30;97055.31;;;16.85;100.00
11198;BME280;5655;48.744;9.162;2022-10-18T00:41:55;97062.28;;;16.90;100.00
11198;BME280;5655;48.744;9.162;2022-10-18T00:46:49;97060.72;;;16.96;100.00
11198;BME280;5655;48.744;9.162;2022-10-18T00:49:19;97074.22;;;17.31;100.00
11198;BME280;5655;48.744;9.162;2022-10-18T00:51:55;97063.00;;;17.36;100.00
11198;BME280;5655;48.744;9.162;2022-10-18T00:54:21;97058.00;;;17.38;100.00
11198;BME280;5655;48.744;9.162;2022-10-18T00:56:47;97064.53;;;17.58;100.00
11198;BME280;5655;48.744;9.162;2022-10-18T00:59:14;97066.47;;;17.54;100.00
11198;BME280;5655;48.744;9.162;2022-10-18T01:01:41;97073.81;;;17.43;100.00
11198;BME280;5655;48.744;9.162;2022-10-18T01:04:06;97069.94;;;17.55;100.00
11198;BME280;5655;48.744;9.162;2022-10-18T01:06:37;97069.91;;;17.80;100.00
11198;BME280;5655;48.744;9.162;2022-10-18T01:09:18;97068.38;;;17.72;100.00
11198;BME280;5655;48.744;9.162;2022-10-18T01:14:37;97069.94;;;17.65;100.00
11198;BME280;5655;48.744;9.162;2022-10-18T01:20:25;97067.59;;;17.82;100.00
11198;BME280;5655;48.744;9.162;2022-10-18T01:23:04;97059.03;;;17.87;100.00
11198;BME280;5655;48.744;9.162;2022-10-18T01:30:59;97055.97;;;17.78;100.00
11198;BME280;5655;48.744;9.162;2022-10-18T01:33:37;97052.88;;;17.79;100.00
11198;BME280;5655;48.744;9.162;2022-10-18T01:36:12;97050.97;;;17.73;100.00
11198;BME280;5655;48.744;9.162;2022-10-18T01:38:39;97056.03;;;17.60;100.00
11198;BME280;5655;48.744;9.162;2022-10-18T01:41:06;97057.16;;;17.73;100.00
11198;BME280;5655;48.744;9.162;2022-10-18T01:43:34;97059.88;;;17.62;100.00
11198;BME280;5655;48.744;9.162;2022-10-18T01:46:01;97056.31;;;17.87;100.00
11198;BME280;5655;48.744;9.162;2022-10-18T01:48:28;97061.78;;;17.80;100.00
11198;BME280;5655;48.744;9.162;2022-10-18T01:50:54;97056.03;;;17.63;100.00
11198;BME280;5655;48.744;9.162;2022-10-18T01:55:54;97055.16;;;17.88;100.00
11198;BME280;5655;48.744;9.162;2022-10-18T01:58:31;97045.91;;;17.82;100.00
11198;BME280;5655;48.744;9.162;2022-10-18T02:01:10;97056.78;;;17.71;100.00
11198;BME280;5655;48.744;9.162;2022-10-18T02:03:44;97062.19;;;17.71;100.00
11198;BME280;5655;48.744;9.162;2022-10-18T02:06:19;97049.44;;;17.61;100.00
11198;BME280;5655;48.744;9.162;2022-10-18T02:08:53;97052.88;;;17.76;100.00
11198;BME280;5655;48.744;9.162;2022-10-18T02:11:22;97049.09;;;17.41;100.00
11198;BME280;5655;48.744;9.162;2022-10-18T02:13:54;97052.91;;;17.68;100.00
11198;BME280;5655;48.744;9.162;2022-10-18T02:18:58;97054.38;;;17.87;100.00
11198;BME280;5655;48.744;9.162;2022-10-18T02:21:27;97054.78;;;17.89;100.00
11198;BME280;5655;48.744;9.162;2022-10-18T02:23:54;97052.09;;;17.79;100.00
11198;BME280;5655;48.744;9.162;2022-10-18T02:26:22;97055.13;;;17.95;100.00
11198;BME280;5655;48.744;9.162;2022-10-18T02:28:48;97056.31;;;17.94;100.00
11198;BME280;5655;48.744;9.162;2022-10-18T02:31:34;97052.34;;;18.12;100.00
11198;BME280;5655;48.744;9.162;2022-10-18T02:34:21;97049.38;;;17.86;100.00
11198;BME280;5655;48.744;9.162;2022-10-18T02:36:58;97048.19;;;17.87;100.00
11198;BME280;5655;48.744;9.162;2022-10-18T02:39:35;97034.31;;;17.74;100.00
11198;BME280;5655;48.744;9.162;2022-10-18T02:42:02;97033.59;;;17.63;100.00
11198;BME280;5655;48.744;9.162;2022-10-18T02:44:31;97027.41;;;17.55;100.00
11198;BME280;5655;48.744;9.162;2022-10-18T02:46:57;97030.50;;;17.64;100.00
11198;BME280;5655;48.744;9.162;2022-10-18T02:49:22;97037.84;;;17.60;100.00
11198;BME280;5655;48.744;9.162;2022-10-18T02:51:48;97036.25;;;17.74;100.00
11198;BME280;5655;48.744;9.162;2022-10-18T02:54:13;97031.97;;;17.80;100.00
11198;BME280;5655;48.744;9.162;2022-10-18T02:56:38;97032.38;;;17.75;100.00
11198;BME280;5655;48.744;9.162;2022-10-18T02:59:04;97035.47;;;17.77;100.00
11198;BME280;5655;48.744;9.162;2022-10-18T03:01:32;97027.44;;;17.41;100.00
11198;BME280;5655;48.744;9.162;2022-10-18T03:03:57;97032.81;;;17.55;100.00
11198;BME280;5655;48.744;9.162;2022-10-18T03:06:22;97032.47;;;17.46;100.00
11198;BME280;5655;48.744;9.162;2022-10-18T03:08:48;97030.88;;;17.63;100.00
11198;BME280;5655;48.744;9.162;2022-10-18T03:11:13;97033.97;;;17.61;100.00
11198;BME280;5655;48.744;9.162;2022-10-18T03:13:38;97033.19;;;17.57;100.00
11198;BME280;5655;48.744;9.162;2022-10-18T03:16:04;97032.81;;;17.62;100.00
11198;BME280;5655;48.744;9.162;2022-10-18T03:18:29;97037.09;;;17.42;100.00
11198;BME280;5655;48.744;9.162;2022-10-18T03:20:55;97040.47;;;17.85;100.00
11198;BME280;5655;48.744;9.162;2022-10-18T03:23:20;97030.47;;;17.57;100.00
11198;BME280;5655;48.744;9.162;2022-10-18T03:25:45;97036.56;;;17.97;100.00
11198;BME280;5655;48.744;9.162;2022-10-18T03:28:11;97031.56;;;17.85;100.00
11198;BME280;5655;48.744;9.162;2022-10-18T03:30:36;97035.84;;;17.86;100.00
11198;BME280;5655;48.744;9.162;2022-10-18T03:33:04;97026.13;;;17.92;100.00
11198;BME280;5655;48.744;9.162;2022-10-18T03:35:29;97032.03;;;17.73;100.00
11198;BME280;5655;48.744;9.162;2022-10-18T03:37:55;97024.25;;;17.82;100.00
11198;BME280;5655;48.744;9.162;2022-10-18T03:40:20;97036.53;;;18.00;100.00
11198;BME280;5655;48.744;9.162;2022-10-18T03:42:45;97031.09;;;18.04;100.00
11198;BME280;5655;48.744;9.162;2022-10-18T03:45:11;97019.47;;;18.03;100.00
11198;BME280;5655;48.744;9.162;2022-10-18T03:47:36;97024.59;;;17.87;100.00
11198;BME280;5655;48.744;9.162;2022-10-18T03:50:01;97025.28;;;18.05;100.00
11198;BME280;5655;48.744;9.162;2022-10-18T03:52:27;97019.34;;;18.32;100.00
11198;BME280;5655;48.744;9.162;2022-10-18T03:54:52;97016.31;;;18.19;100.00
11198;BME280;5655;48.744;9.162;2022-10-18T03:57:17;97022.84;;;18.25;100.00
11198;BME280;5655;48.744;9.162;2022-10-18T03:59:43;97031.03;;;18.14;100.00
11198;BME280;5655;48.744;9.162;2022-10-18T04:02:08;97032.63;;;18.12;100.00
11198;BME280;5655;48.744;9.162;2022-10-18T04:04:33;97028.88;;;17.85;100.00
11198;BME280;5655;48.744;9.162;2022-10-18T04:06:59;97031.97;;;17.80;100.00
11198;BME280;5655;48.744;9.162;2022-10-18T04:09:24;97035.78;;;17.93;100.00
11198;BME280;5655;48.744;9.162;2022-10-18T04:11:50;97041.06;;;18.25;100.00
11198;BME280;5655;48.744;9.162;2022-10-18T04:14:15;97035.69;;;18.14;100.00
11198;BME280;5655;48.744;9.162;2022-10-18T04:16:41;97033.72;;;18.18;100.00
11198;BME280;5655;48.744;9.162;2022-10-18T04:19:06;97031.53;;;17.92;100.00
11198;BME280;5655;48.744;9.162;2022-10-18T04:21:31;97025.75;;;17.90;100.00
11198;BME280;5655;48.744;9.162;2022-10-18T04:23:57;97034.66;;;17.87;100.00
11198;BME280;5655;48.744;9.162;2022-10-18T04:26:22;97037.34;;;17.94;100.00
11198;BME280;5655;48.744;9.162;2022-10-18T04:28:47;97042.28;;;18.13;100.00
11198;BME280;5655;48.744;9.162;2022-10-18T04:31:13;97038.09;;;17.98;100.00
11198;BME280;5655;48.744;9.162;2022-10-18T04:33:38;97034.34;;;17.71;100.00
11198;BME280;5655;48.744;9.162;2022-10-18T04:36:04;97047.44;;;17.83;100.00
11198;BME280;5655;48.744;9.162;2022-10-18T04:38:29;97042.81;;;17.80;100.00
11198;BME280;5655;48.744;9.162;2022-10-18T04:40:54;97045.13;;;17.85;100.00
11198;BME280;5655;48.744;9.162;2022-10-18T04:43:20;97048.19;;;17.87;100.00
11198;BME280;5655;48.744;9.162;2022-10-18T04:45:45;97053.50;;;18.08;100.00
11198;BME280;5655;48.744;9.162;2022-10-18T04:48:12;97055.47;;;18.04;100.00
11198;BME280;5655;48.744;9.162;2022-10-18T04:50:37;97061.19;;;18.27;100.00
11198;BME280;5655;48.744;9.162;2022-10-18T04:53:03;97058.81;;;18.36;100.00
11198;BME280;5655;48.744;9.162;2022-10-18T04:55:28;97065.78;;;18.30;100.00
11198;BME280;5655;48.744;9.162;2022-10-18T04:57:53;97047.13;;;18.46;100.00
11198;BME280;5655;48.744;9.162;2022-10-18T05:00:19;97051.59;;;18.12;100.00
11198;BME280;5655;48.744;9.162;2022-10-18T05:02:44;97043.59;;;17.80;100.00
11198;BME280;5655;48.744;9.162;2022-10-18T05:05:09;97032.75;;;17.80;100.00
11198;BME280;5655;48.744;9.162;2022-10-18T05:07:35;97036.69;;;17.61;100.00
11198;BME280;5655;48.744;9.162;2022-10-18T05:10:00;97038.16;;;17.84;100.00
11198;BME280;5655;48.744;9.162;2022-10-18T05:12:25;97046.69;;;17.79;100.00
11198;BME280;5655;48.744;9.162;2022-10-18T05:14:50;97051.69;;;17.84;100.00
11198;BME280;5655;48.744;9.162;2022-10-18T05:17:16;97050.97;;;17.73;100.00
11198;BME280;5655;48.744;9.162;2022-10-18T05:19:41;97048.19;;;17.87;100.00
11198;BME280;5655;48.744;9.162;2022-10-18T05:22:06;97039.06;;;17.38;100.00
11198;BME280;5655;48.744;9.162;2022-10-18T05:24:32;97046.31;;;17.69;100.00
11198;BME280;5655;48.744;9.162;2022-10-18T05:26:57;97036.22;;;17.84;100.00
11198;BME280;5655;48.744;9.162;2022-10-18T05:29:23;97038.09;;;17.98;100.00
11198;BME280;5655;48.744;9.162;2022-10-18T05:31:49;97041.97;;;17.97;100.00
11198;BME280;5655;48.744;9.162;2022-10-18T05:34:15;97044.97;;;18.20;100.00
11198;BME280;5655;48.744;9.162;2022-10-18T05:36:40;97047.72;;;18.06;100.00
11198;BME280;5655;48.744;9.162;2022-10-18T05:39:05;97050.31;;;18.31;100.00
11198;BME280;5655;48.744;9.162;2022-10-18T05:41:31;97060.03;;;18.25;100.00
11198;BME280;5655;48.744;9.162;2022-10-18T05:43:56;97057.19;;;18.42;100.00
11198;BME280;5655;48.744;9.162;2022-10-18T05:46:22;97052.28;;;18.23;100.00
11198;BME280;5655;48.744;9.162;2022-10-18T05:48:50;97054.13;;;18.40;100.00
11198;BME280;5655;48.744;9.162;2022-10-18T05:51:17;97050.81;;;18.08;100.00
11198;BME280;5655;48.744;9.162;2022-10-18T05:53:43;97056.97;;;18.19;100.00
11198;BME280;5655;48.744;9.162;2022-10-18T05:56:08;97057.97;;;18.43;100.00
11198;BME280;5655;48.744;9.162;2022-10-18T05:58:36;97057.25;;;18.35;100.00
11198;BME280;5655;48.744;9.162;2022-10-18T06:01:03;97059.91;;;18.42;100.00
11198;BME280;5655;48.744;9.162;2022-10-18T06:03:29;97059.53;;;18.44;100.00
11198;BME280;5655;48.744;9.162;2022-10-18T06:05:59;97053.44;;;18.88;100.00
11198;BME280;5655;48.744;9.162;2022-10-18T06:08:24;97047.84;;;18.57;100.00
11198;BME280;5655;48.744;9.162;2022-10-18T06:10:50;97046.28;;;18.60;100.00
11198;BME280;5655;48.744;9.162;2022-10-18T06:13:15;97054.72;;;18.69;100.00
11198;BME280;5655;48.744;9.162;2022-10-18T06:15:40;97054.59;;;18.87;100.00
11198;BME280;5655;48.744;9.162;2022-10-18T06:18:05;97062.75;;;18.87;100.00
11198;BME280;5655;48.744;9.162;2022-10-18T06:20:31;97066.16;;;18.98;100.00
11198;BME280;5655;48.744;9.162;2022-10-18T06:22:56;97057.03;;;18.74;100.00
11198;BME280;5655;48.744;9.162;2022-10-18T06:25:21;97054.66;;;18.80;100.00
11198;BME280;5655;48.744;9.162;2022-10-18T06:27:47;97066.75;;;19.16;100.00
11198;BME280;5655;48.744;9.162;2022-10-18T06:30:12;97058.31;;;19.07;100.00
11198;BME280;5655;48.744;9.162;2022-10-18T06:32:37;97069.84;;;19.18;100.00
11198;BME280;5655;48.744;9.162;2022-10-18T06:35:03;97079.28;;;19.07;100.00
11198;BME280;5655;48.744;9.162;2022-10-18T06:37:28;97062.13;;;19.13;100.00
11198;BME280;5655;48.744;9.162;2022-10-18T06:39:54;97066.44;;;19.11;100.00
11198;BME280;5655;48.744;9.162;2022-10-18T06:42:19;97068.63;;;19.26;100.00
11198;BME280;5655;48.744;9.162;2022-10-18T06:44:45;97075.78;;;19.51;100.00
11198;BME280;5655;48.744;9.162;2022-10-18T06:47:10;97073.53;;;19.45;100.00
11198;BME280;5655;48.744;9.162;2022-10-18T06:49:35;97080.34;;;19.61;100.00
11198;BME280;5655;48.744;9.162;2022-10-18T06:52:01;97084.38;;;19.83;100.00
11198;BME280;5655;48.744;9.162;2022-10-18T06:54:26;97088.00;;;19.69;100.00
11198;BME280;5655;48.744;9.162;2022-10-18T06:56:55;97083.44;;;19.63;100.00
11198;BME280;5655;48.744;9.162;2022-10-18T06:59:20;97078.19;;;19.41;100.00
11198;BME280;5655;48.744;9.162;2022-10-18T07:01:46;97090.88;;;19.89;100.00
11198;BME280;5655;48.744;9.162;2022-10-18T07:04:11;97090.13;;;19.88;100.00
11198;BME280;5655;48.744;9.162;2022-10-18T07:06:36;97095.66;;;19.78;100.00
11198;BME280;5655;48.744;9.162;2022-10-18T07:09:02;97090.88;;;19.89;100.00
11198;BME280;5655;48.744;9.162;2022-10-18T07:11:28;97095.97;;;19.87;100.00
11198;BME280;5655;48.744;9.162;2022-10-18T07:13:54;97090.88;;;19.89;100.00
11198;BME280;5655;48.744;9.162;2022-10-18T07:16:25;97090.69;;;20.07;100.00
11198;BME280;5655;48.744;9.162;2022-10-18T07:18:50;97099.69;;;20.00;100.00
11198;BME280;5655;48.744;9.162;2022-10-18T07:21:18;97092.66;;;20.36;100.00
11198;BME280;5655;48.744;9.162;2022-10-18T07:23:44;97096.84;;;20.11;100.00
11198;BME280;5655;48.744;9.162;2022-10-18T07:28:38;97102.41;;;20.00;100.00
11198;BME280;5655;48.744;9.162;2022-10-18T07:31:05;97104.97;;;20.14;100.00
11198;BME280;5655;48.744;9.162;2022-10-18T07:33:31;97108.28;;;20.29;100.00
11198;BME280;5655;48.744;9.162;2022-10-18T07:36:00;97103.41;;;20.47;100.00
11198;BME280;5655;48.744;9.162;2022-10-18T07:38:26;97098.44;;;20.08;100.00
11198;BME280;5655;48.744;9.162;2022-10-18T07:41:02;97110.19;;;20.62;100.00
11198;BME280;5655;48.744;9.162;2022-10-18T07:43:28;97115.88;;;20.45;100.00
11198;BME280;5655;48.744;9.162;2022-10-18T07:45:55;97107.16;;;20.57;100.00
11198;BME280;5655;48.744;9.162;2022-10-18T07:48:21;97115.84;;;20.75;100.00
11198;BME280;5655;48.744;9.162;2022-10-18T07:50:47;97114.50;;;20.60;100.00
11198;BME280;5655;48.744;9.162;2022-10-18T07:53:12;97115.22;;;20.64;100.00
11198;BME280;5655;48.744;9.162;2022-10-18T07:55:37;97109.22;;;20.76;100.00
11198;BME280;5655;48.744;9.162;2022-10-18T07:58:03;97119.44;;;20.95;100.00
11198;BME280;5655;48.744;9.162;2022-10-18T08:00:28;97113.03;;;20.82;100.00
11198;BME280;5655;48.744;9.162;2022-10-18T08:02:58;97117.31;;;21.06;100.00
11198;BME280;5655;48.744;9.162;2022-10-18T08:05:24;97116.47;;;21.13;100.00
11198;BME280;5655;48.744;9.162;2022-10-18T08:07:51;97121.25;;;21.05;100.00
11198;BME280;5655;48.744;9.162;2022-10-18T08:10:16;97117.75;;;20.78;100.00
11198;BME280;5655;48.744;9.162;2022-10-18T08:12:41;97120.16;;;20.99;100.00
11198;BME280;5655;48.744;9.162;2022-10-18T08:15:07;97123.00;;;20.92;100.00
11198;BME280;5655;48.744;9.162;2022-10-18T08:17:33;97129.03;;;21.03;100.00
11198;BME280;5655;48.744;9.162;2022-10-18T08:19:58;97135.13;;;21.11;100.00
11198;BME280;5655;48.744;9.162;2022-10-18T08:22:24;97136.94;;;20.94;100.00
11198;BME280;5655;48.744;9.162;2022-10-18T08:24:49;97126.06;;;20.94;100.00
11198;BME280;5655;48.744;9.162;2022-10-18T08:27:14;97137.34;;;21.19;100.00
11198;BME280;5655;48.744;9.162;2022-10-18T08:29:40;97140.28;;;21.05;100.00
11198;BME280;5655;48.744;9.162;2022-10-18T08:32:06;97135.50;;;20.86;100.00
11198;BME280;5655;48.744;9.162;2022-10-18T08:34:34;97136.13;;;20.97;100.00
11198;BME280;5655;48.744;9.162;2022-10-18T08:37:00;97150.09;;;20.99;100.00
11198;BME280;5655;48.744;9.162;2022-10-18T08:39:26;97142.75;;;20.96;100.00
11198;BME280;5655;48.744;9.162;2022-10-18T08:42:07;97139.63;;;21.24;100.00
11198;BME280;5655;48.744;9.162;2022-10-18T08:44:43;97144.06;;;21.38;100.00
11198;BME280;5655;48.744;9.162;2022-10-18T08:47:16;97132.16;;;21.28;100.00
11198;BME280;5655;48.744;9.162;2022-10-18T08:50:05;97142.09;;;21.15;100.00
11198;BME280;5655;48.744;9.162;2022-10-18T08:52:36;97141.25;;;21.18;100.00
11198;BME280;5655;48.744;9.162;2022-10-18T08:55:12;97137.84;;;21.38;100.00
11198;BME280;5655;48.744;9.162;2022-10-18T08:57:41;97142.94;;;21.12;100.00
11198;BME280;5655;48.744;9.162;2022-10-18T09:16:44;97163.00;;;22.90;100.00
11198;BME280;5655;48.744;9.162;2022-10-18T09:22:12;97154.84;;;23.06;100.00
11198;BME280;5655;48.744;9.162;2022-10-18T09:24:39;97152.97;;;23.03;100.00
11198;BME280;5655;48.744;9.162;2022-10-18T09:27:18;97159.97;;;23.21;100.00
11198;BME280;5655;48.744;9.162;2022-10-18T09:37:19;97146.56;;;24.20;100.00
11198;BME280;5655;48.744;9.162;2022-10-18T09:39:47;97147.53;;;24.26;100.00
11198;BME280;5655;48.744;9.162;2022-10-18T09:44:50;97149.28;;;24.04;100.00
11198;BME280;5655;48.744;9.162;2022-10-18T09:47:21;97152.78;;;24.20;100.00
11198;BME280;5655;48.744;9.162;2022-10-18T09:49:56;97160.91;;;24.08;100.00
11198;BME280;5655;48.744;9.162;2022-10-18T09:52:31;97151.56;;;23.92;100.00
11198;BME280;5655;48.744;9.162;2022-10-18T09:55:02;97153.03;;;24.10;100.00
11198;BME280;5655;48.744;9.162;2022-10-18T09:57:34;97155.78;;;24.10;100.00
11198;BME280;5655;48.744;9.162;2022-10-18T10:00:04;97164.75;;;23.81;100.00
11198;BME280;5655;48.744;9.162;2022-10-18T10:02:31;97164.00;;;24.10;100.00
11198;BME280;5655;48.744;9.162;2022-10-18T10:04:56;97162.91;;;23.91;100.00
11198;BME280;5655;48.744;9.162;2022-10-18T10:07:27;97172.50;;;24.28;100.00
11198;BME280;5655;48.744;9.162;2022-10-18T10:10:06;97173.38;;;24.09;100.00
11198;BME280;5655;48.744;9.162;2022-10-18T10:12:36;97180.84;;;23.63;100.00
11198;BME280;5655;48.744;9.162;2022-10-18T10:15:08;97173.91;;;23.59;100.00
11198;BME280;5655;48.744;9.162;2022-10-18T10:17:34;97174.91;;;23.16;100.00
11198;BME280;5655;48.744;9.162;2022-10-18T10:20:14;97166.91;;;23.25;100.00
11198;BME280;5655;48.744;9.162;2022-10-18T10:22:43;97168.50;;;23.23;100.00
11198;BME280;5655;48.744;9.162;2022-10-18T10:25:42;97170.66;;;23.47;100.00
11198;BME280;5655;48.744;9.162;2022-10-18T10:28:17;97173.09;;;23.10;100.00
11198;BME280;5655;48.744;9.162;2022-10-18T10:30:43;97180.28;;;23.20;100.00
11198;BME280;5655;48.744;9.162;2022-10-18T10:35:59;97180.50;;;23.45;100.00
11198;BME280;5655;48.744;9.162;2022-10-18T10:38:26;97180.25;;;23.56;100.00
11198;BME280;5655;48.744;9.162;2022-10-18T10:40:52;97164.94;;;23.42;100.00
11198;BME280;5655;48.744;9.162;2022-10-18T10:48:32;97162.41;;;24.66;100.00
11198;BME280;5655;48.744;9.162;2022-10-18T10:51:04;97158.66;;;25.02;100.00
11198;BME280;5655;48.744;9.162;2022-10-18T10:59:29;97156.97;;;25.42;100.00
11198;BME280;5655;48.744;9.162;2022-10-18T11:04:35;97156.41;;;24.84;100.00
11198;BME280;5655;48.744;9.162;2022-10-18T11:12:42;97165.16;;;24.25;100.00
11198;BME280;5655;48.744;9.162;2022-10-18T11:15:33;97158.31;;;24.33;100.00
11198;BME280;5655;48.744;9.162;2022-10-18T11:20:41;97161.69;;;23.63;100.00
11198;BME280;5655;48.744;9.162;2022-10-18T11:23:12;97158.59;;;23.61;100.00
11198;BME280;5655;48.744;9.162;2022-10-18T11:26:05;97149.38;;;23.71;100.00
11198;BME280;5655;48.744;9.162;2022-10-18T11:43:23;97150.69;;;24.66;100.00
11198;BME280;5655;48.744;9.162;2022-10-18T11:48:30;97159.72;;;23.64;100.00
11198;BME280;5655;48.744;9.162;2022-10-18T11:56:29;97159.34;;;23.13;100.00
11198;BME280;5655;48.744;9.162;2022-10-18T12:04:35;97150.13;;;23.39;100.00
11198;BME280;5655;48.744;9.162;2022-10-18T12:07:04;97145.03;;;24.03;100.00
11198;BME280;5655;48.744;9.162;2022-10-18T12:09:40;97141.00;;;25.03;100.00
11198;BME280;5655;48.744;9.162;2022-10-18T12:12:11;97131.50;;;25.54;100.00
11198;BME280;5655;48.744;9.162;2022-10-18T12:14:47;97131.59;;;25.98;100.00
11198;BME280;5655;48.744;9.162;2022-10-18T12:17:33;97130.22;;;25.81;100.00
11198;BME280;5655;48.744;9.162;2022-10-18T12:20:06;97134.84;;;25.24;100.00
11198;BME280;5655;48.744;9.162;2022-10-18T12:22:39;97140.03;;;24.97;100.00
11198;BME280;5655;48.744;9.162;2022-10-18T12:25:11;97125.44;;;25.00;100.00
11198;BME280;5655;48.744;9.162;2022-10-18T12:27:59;97134.19;;;25.33;100.00
11198;BME280;5655;48.744;9.162;2022-10-18T12:30:36;97129.94;;;24.94;100.00
11198;BME280;5655;48.744;9.162;2022-10-18T12:33:12;97132.56;;;24.97;100.00
11198;BME280;5655;48.744;9.162;2022-10-18T12:35:58;97125.81;;;24.60;100.00
11198;BME280;5655;48.744;9.162;2022-10-18T12:38:34;97119.31;;;24.96;100.00
11198;BME280;5655;48.744;9.162;2022-10-18T12:41:02;97120.72;;;24.88;100.00
11198;BME280;5655;48.744;9.162;2022-10-18T12:43:31;97115.88;;;25.29;100.00
11198;BME280;5655;48.744;9.162;2022-10-18T12:46:05;97110.91;;;25.50;100.00
11198;BME280;5655;48.744;9.162;2022-10-18T12:48:37;97114.38;;;26.19;100.00
11198;BME280;5655;48.744;9.162;2022-10-18T12:51:20;97120.16;;;25.78;100.00
11198;BME280;5655;48.744;9.162;2022-10-18T12:54:09;97110.38;;;25.29;100.00
11198;BME280;5655;48.744;9.162;2022-10-18T12:56:40;97107.22;;;25.31;100.00
11198;BME280;5655;48.744;9.162;2022-10-18T13:07:10;97115.19;;;25.38;100.00
11198;BME280;5655;48.744;9.162;2022-10-18T13:09:40;97112.13;;;25.36;100.00
11198;BME280;5655;48.744;9.162;2022-10-18T13:14:54;97118.72;;;25.26;100.00
11198;BME280;5655;48.744;9.162;2022-10-18T13:17:33;97124.09;;;25.17;100.00
11198;BME280;5655;48.744;9.162;2022-10-18T13:21:00;97123.59;;;24.97;100.00
11198;BME280;5655;48.744;9.162;2022-10-18T13:26:12;97133.53;;;24.91;100.00
11198;BME280;5655;48.744;9.162;2022-10-18T13:29:03;97127.53;;;24.96;100.00
11198;BME280;5655;48.744;9.162;2022-10-18T13:31:48;97120.94;;;25.06;100.00
11198;BME280;5655;48.744;9.162;2022-10-18T13:37:00;97116.53;;;24.70;100.00
11198;BME280;5655;48.744;9.162;2022-10-18T13:39:26;97120.53;;;24.28;100.00
11198;BME280;5655;48.744;9.162;2022-10-18T13:44:31;97123.47;;;24.33;100.00
11198;BME280;5655;48.744;9.162;2022-10-18T13:53:08;97123.78;;;24.23;100.00
11198;BME280;5655;48.744;9.162;2022-10-18T13:55:59;97122.34;;;23.89;100.00
11198;BME280;5655;48.744;9.162;2022-10-18T14:06:20;97131.44;;;24.15;100.00
11198;BME280;5655;48.744;9.162;2022-10-18T14:08:53;97132.59;;;23.85;100.00
11198;BME280;5655;48.744;9.162;2022-10-18T14:11:33;97135.09;;;24.09;100.00
11198;BME280;5655;48.744;9.162;2022-10-18T14:14:11;97131.44;;;23.99;100.00
11198;BME280;5655;48.744;9.162;2022-10-18T14:17:01;97130.19;;;23.87;100.00
11198;BME280;5655;48.744;9.162;2022-10-18T14:19:32;97140.34;;;23.42;100.00
11198;BME280;5655;48.744;9.162;2022-10-18T14:22:14;97136.34;;;23.46;100.00
11198;BME280;5655;48.744;9.162;2022-10-18T14:24:44;97141.34;;;23.16;100.00
11198;BME280;5655;48.744;9.162;2022-10-18T14:27:27;97146.72;;;23.19;100.00
11198;BME280;5655;48.744;9.162;2022-10-18T14:30:17;97150.03;;;23.43;100.00
11198;BME280;5655;48.744;9.162;2022-10-18T14:32:51;97153.91;;;23.29;100.00
11198;BME280;5655;48.744;9.162;2022-10-18T14:35:24;97143.72;;;23.14;100.00
11198;BME280;5655;48.744;9.162;2022-10-18T14:37:52;97146.63;;;23.23;100.00
11198;BME280;5655;48.744;9.162;2022-10-18T14:40:35;97150.16;;;23.07;100.00
11198;BME280;5655;48.744;9.162;2022-10-18T14:43:18;97149.09;;;23.17;100.00
11198;BME280;5655;48.744;9.162;2022-10-18T14:45:44;97147.63;;;22.80;100.00
11198;BME280;5655;48.744;9.162;2022-10-18T14:48:17;97140.78;;;22.72;100.00
11198;BME280;5655;48.744;9.162;2022-10-18T14:50:47;97142.44;;;22.66;100.00
11198;BME280;5655;48.744;9.162;2022-10-18T14:53:17;97126.75;;;22.34;100.00
11198;BME280;5655;48.744;9.162;2022-10-18T14:55:56;97132.00;;;22.81;100.00
11198;BME280;5655;48.744;9.162;2022-10-18T14:58:22;97141.47;;;22.76;100.00
11198;BME280;5655;48.744;9.162;2022-10-18T15:00:48;97134.34;;;22.82;100.00
11198;BME280;5655;48.744;9.162;2022-10-18T15:03:14;97131.75;;;22.55;100.00
11198;BME280;5655;48.744;9.162;2022-10-18T15:05:55;97132.19;;;22.74;100.00
11198;BME280;5655;48.744;9.162;2022-10-18T15:08:22;97126.72;;;22.54;100.00
11198;BME280;5655;48.744;9.162;2022-10-18T15:10:48;97133.50;;;22.46;100.00
11198;BME280;5655;48.744;9.162;2022-10-18T15:13:14;97134.78;;;22.41;100.00
11198;BME280;5655;48.744;9.162;2022-10-18T15:15:40;97131.63;;;22.23;100.00
11198;BME280;5655;48.744;9.162;2022-10-18T15:18:06;97131.38;;;22.17;100.00
11198;BME280;5655;48.744;9.162;2022-10-18T15:20:34;97129.13;;;22.32;100.00
11198;BME280;5655;48.744;9.162;2022-10-18T15:23:24;97136.56;;;22.48;100.00
11198;BME280;5655;48.744;9.162;2022-10-18T15:25:51;97137.44;;;22.45;100.00
11198;BME280;5655;48.744;9.162;2022-10-18T15:28:29;97134.31;;;22.07;100.00